VLG86SB LEMG-LEBL
Flight info
| Callsign | VLG86SB |
|---|---|
| Flight time | 1h 14m |
| Altitude | 38000 |
| Route | RIXUR M445 PEPAS DCT ARPEX M445 BEGOX N860 VLC L34 CASIM N608 MATEX |
| Aircraft | A320/M-SDE3FGHIRWY/LB1 |
Departure
| Time | 2026-05-05 15:50 |
|---|---|
| Airport | Málaga-Costa del Sol Airport (LEMG) |
Arrival
| Time | 2026-05-05 17:04 |
|---|---|
| Airport | Josep Tarradellas Barcelona-El Prat Airport (LEBL) |
| Time | Latitude | Longitude | Altitude | Speed | Heading |
|---|---|---|---|---|---|
| 2026-05-05 15:25 | 36.67891 | -4.49495 | 49 ft | 0 kts | 214° |
| 2026-05-05 15:37 | 36.67898 | -4.49489 | 49 ft | 2 kts | 214° |
| 2026-05-05 15:37 | 36.67910 | -4.49478 | 49 ft | 0 kts | 214° |
| 2026-05-05 15:38 | 36.67922 | -4.49469 | 49 ft | 2 kts | 225° |
| 2026-05-05 15:38 | 36.67928 | -4.49452 | 49 ft | 2 kts | 266° |
| 2026-05-05 15:38 | 36.67926 | -4.49434 | 49 ft | 1 kts | 302° |
| 2026-05-05 15:39 | 36.67921 | -4.49428 | 49 ft | 1 kts | 317° |
| 2026-05-05 15:39 | 36.67919 | -4.49424 | 49 ft | 0 kts | 313° |
| 2026-05-05 15:43 | 36.67920 | -4.49426 | 49 ft | 1 kts | 313° |
| 2026-05-05 15:43 | 36.67930 | -4.49440 | 49 ft | 3 kts | 313° |
| 2026-05-05 15:43 | 36.67951 | -4.49468 | 49 ft | 5 kts | 313° |
| 2026-05-05 15:43 | 36.67986 | -4.49515 | 48 ft | 8 kts | 312° |
| 2026-05-05 15:44 | 36.68022 | -4.49586 | 48 ft | 10 kts | 271° |
| 2026-05-05 15:44 | 36.67985 | -4.49647 | 51 ft | 7 kts | 223° |
| 2026-05-05 15:44 | 36.67950 | -4.49685 | 53 ft | 6 kts | 221° |
| 2026-05-05 15:44 | 36.67913 | -4.49725 | 53 ft | 8 kts | 221° |
| 2026-05-05 15:45 | 36.67847 | -4.49798 | 50 ft | 17 kts | 224° |
| 2026-05-05 15:45 | 36.67757 | -4.49868 | 48 ft | 15 kts | 193° |
| 2026-05-05 15:45 | 36.67685 | -4.49875 | 47 ft | 10 kts | 139° |
| 2026-05-05 15:45 | 36.67624 | -4.49804 | 47 ft | 12 kts | 133° |
| 2026-05-05 15:46 | 36.67559 | -4.49713 | 45 ft | 15 kts | 131° |
| 2026-05-05 15:46 | 36.67481 | -4.49601 | 42 ft | 18 kts | 131° |
| 2026-05-05 15:46 | 36.67395 | -4.49481 | 43 ft | 18 kts | 132° |
| 2026-05-05 15:46 | 36.67312 | -4.49364 | 44 ft | 17 kts | 131° |
| 2026-05-05 15:47 | 36.67228 | -4.49244 | 42 ft | 19 kts | 131° |
| 2026-05-05 15:47 | 36.67161 | -4.49155 | 35 ft | 21 kts | 133° |
| 2026-05-05 15:47 | 36.67021 | -4.48959 | 33 ft | 22 kts | 131° |
| 2026-05-05 15:47 | 36.66919 | -4.48815 | 35 ft | 21 kts | 131° |
| 2026-05-05 15:48 | 36.66818 | -4.48673 | 32 ft | 22 kts | 132° |
| 2026-05-05 15:48 | 36.66711 | -4.48526 | 29 ft | 10 kts | 134° |
| 2026-05-05 15:48 | 36.66656 | -4.48491 | 31 ft | 8 kts | 173° |
| 2026-05-05 15:48 | 36.66625 | -4.48508 | 33 ft | 2 kts | 226° |
| 2026-05-05 15:49 | 36.66609 | -4.48526 | 32 ft | 4 kts | 221° |
| 2026-05-05 15:49 | 36.66583 | -4.48553 | 33 ft | 5 kts | 221° |
| 2026-05-05 15:49 | 36.66555 | -4.48592 | 33 ft | 6 kts | 262° |
| 2026-05-05 15:49 | 36.66588 | -4.48649 | 32 ft | 15 kts | 312° |
| 2026-05-05 15:50 | 36.66804 | -4.48951 | 41 ft | 85 kts | 313° |
| 2026-05-05 15:50 | 36.67361 | -4.49728 | 57 ft | 151 kts | 312° |
| 2026-05-05 15:50 | 36.68059 | -4.50702 | 729 ft | 152 kts | 310° |
| 2026-05-05 15:50 | 36.68715 | -4.51704 | 1539 ft | 152 kts | 310° |
| 2026-05-05 15:51 | 36.69374 | -4.52731 | 2255 ft | 159 kts | 310° |
| 2026-05-05 15:51 | 36.70097 | -4.53839 | 2835 ft | 176 kts | 310° |
| 2026-05-05 15:51 | 36.70917 | -4.55077 | 3392 ft | 197 kts | 310° |
| 2026-05-05 15:51 | 36.71828 | -4.56442 | 4068 ft | 215 kts | 310° |
| 2026-05-05 15:52 | 36.72806 | -4.57834 | 5015 ft | 219 kts | 319° |
| 2026-05-05 15:52 | 36.74079 | -4.58812 | 5986 ft | 222 kts | 339° |
| 2026-05-05 15:52 | 36.75542 | -4.59387 | 6953 ft | 225 kts | 343° |
| 2026-05-05 15:52 | 36.77058 | -4.59917 | 7886 ft | 229 kts | 342° |
| 2026-05-05 15:53 | 36.78593 | -4.60454 | 8770 ft | 234 kts | 341° |
| 2026-05-05 15:53 | 36.80160 | -4.60987 | 9623 ft | 239 kts | 346° |
| 2026-05-05 15:53 | 36.81823 | -4.60873 | 10429 ft | 252 kts | 16° |
| 2026-05-05 15:53 | 36.83349 | -4.59696 | 11031 ft | 271 kts | 38° |
| 2026-05-05 15:54 | 36.84782 | -4.58093 | 11583 ft | 286 kts | 39° |
| 2026-05-05 15:54 | 36.86268 | -4.56395 | 12310 ft | 293 kts | 39° |
| 2026-05-05 15:54 | 36.87780 | -4.54683 | 13063 ft | 298 kts | 38° |
| 2026-05-05 15:54 | 36.89330 | -4.52951 | 13790 ft | 303 kts | 38° |
| 2026-05-05 15:55 | 36.90901 | -4.51209 | 14527 ft | 307 kts | 38° |
| 2026-05-05 15:55 | 36.92501 | -4.49440 | 15267 ft | 310 kts | 38° |
| 2026-05-05 15:55 | 36.94123 | -4.47651 | 16013 ft | 314 kts | 37° |
| 2026-05-05 15:55 | 36.95747 | -4.45859 | 16756 ft | 316 kts | 37° |
| 2026-05-05 15:56 | 36.97333 | -4.43935 | 17444 ft | 324 kts | 49° |
| 2026-05-05 15:56 | 36.98437 | -4.41449 | 18054 ft | 334 kts | 70° |
| 2026-05-05 15:56 | 36.99017 | -4.38567 | 18407 ft | 350 kts | 77° |
| 2026-05-05 15:56 | 36.99480 | -4.35543 | 18715 ft | 366 kts | 79° |
| 2026-05-05 15:57 | 36.99956 | -4.32328 | 19099 ft | 379 kts | 78° |
| 2026-05-05 15:57 | 37.00451 | -4.29082 | 19685 ft | 384 kts | 78° |
| 2026-05-05 15:57 | 37.00960 | -4.25830 | 20370 ft | 386 kts | 78° |
| 2026-05-05 15:57 | 37.01483 | -4.22546 | 21021 ft | 388 kts | 78° |
| 2026-05-05 15:58 | 37.02015 | -4.19233 | 21603 ft | 392 kts | 78° |
| 2026-05-05 15:58 | 37.02562 | -4.15845 | 22177 ft | 397 kts | 78° |
| 2026-05-05 15:58 | 37.03104 | -4.12488 | 22719 ft | 401 kts | 78° |
| 2026-05-05 15:58 | 37.03657 | -4.09061 | 23280 ft | 404 kts | 78° |
| 2026-05-05 15:59 | 37.04215 | -4.05600 | 23824 ft | 408 kts | 78° |
| 2026-05-05 15:59 | 37.04772 | -4.02134 | 24323 ft | 412 kts | 78° |
| 2026-05-05 15:59 | 37.05336 | -3.98625 | 24837 ft | 416 kts | 78° |
| 2026-05-05 15:59 | 37.05911 | -3.95040 | 25332 ft | 420 kts | 78° |
| 2026-05-05 16:00 | 37.06482 | -3.91462 | 25790 ft | 424 kts | 78° |
| 2026-05-05 16:00 | 37.07062 | -3.87829 | 26261 ft | 428 kts | 78° |
| 2026-05-05 16:00 | 37.07642 | -3.84180 | 26718 ft | 432 kts | 78° |
| 2026-05-05 16:00 | 37.08230 | -3.80482 | 27157 ft | 436 kts | 78° |
| 2026-05-05 16:01 | 37.08819 | -3.76771 | 27611 ft | 439 kts | 78° |
| 2026-05-05 16:01 | 37.09409 | -3.73030 | 28040 ft | 443 kts | 78° |
| 2026-05-05 16:01 | 37.10009 | -3.69232 | 28475 ft | 447 kts | 77° |
| 2026-05-05 16:01 | 37.10887 | -3.65513 | 28871 ft | 449 kts | 66° |
| 2026-05-05 16:02 | 37.12328 | -3.62057 | 29267 ft | 450 kts | 53° |
| 2026-05-05 16:02 | 37.14277 | -3.59009 | 29665 ft | 448 kts | 43° |
| 2026-05-05 16:02 | 37.16466 | -3.56219 | 30065 ft | 450 kts | 40° |
| 2026-05-05 16:02 | 37.18698 | -3.53435 | 30479 ft | 454 kts | 40° |
| 2026-05-05 16:03 | 37.20912 | -3.50646 | 30862 ft | 457 kts | 41° |
| 2026-05-05 16:03 | 37.23148 | -3.47800 | 31252 ft | 460 kts | 41° |
| 2026-05-05 16:03 | 37.25388 | -3.44919 | 31634 ft | 464 kts | 41° |
| 2026-05-05 16:03 | 37.27644 | -3.42004 | 32007 ft | 467 kts | 41° |
| 2026-05-05 16:04 | 37.29911 | -3.39067 | 32377 ft | 470 kts | 41° |
| 2026-05-05 16:04 | 37.32190 | -3.36111 | 32744 ft | 473 kts | 41° |
| 2026-05-05 16:04 | 37.34485 | -3.33129 | 33079 ft | 476 kts | 42° |
| 2026-05-05 16:04 | 37.36762 | -3.30166 | 33397 ft | 479 kts | 42° |
| 2026-05-05 16:05 | 37.39091 | -3.27129 | 33725 ft | 481 kts | 42° |
| 2026-05-05 16:05 | 37.41393 | -3.24128 | 34140 ft | 481 kts | 42° |
| 2026-05-05 16:05 | 37.43716 | -3.21094 | 34558 ft | 480 kts | 42° |
| 2026-05-05 16:05 | 37.46028 | -3.18073 | 34947 ft | 479 kts | 42° |
| 2026-05-05 16:06 | 37.48315 | -3.15082 | 35297 ft | 479 kts | 42° |
| 2026-05-05 16:06 | 37.50643 | -3.12034 | 35666 ft | 478 kts | 42° |
| 2026-05-05 16:06 | 37.52934 | -3.09032 | 36024 ft | 477 kts | 42° |
| 2026-05-05 16:06 | 37.55207 | -3.06049 | 36363 ft | 476 kts | 42° |
| 2026-05-05 16:07 | 37.57501 | -3.03039 | 36733 ft | 477 kts | 42° |
| 2026-05-05 16:07 | 37.59800 | -3.00023 | 37059 ft | 478 kts | 42° |
| 2026-05-05 16:07 | 37.62096 | -2.97011 | 37351 ft | 480 kts | 42° |
| 2026-05-05 16:07 | 37.64394 | -2.93989 | 37650 ft | 481 kts | 42° |
| 2026-05-05 16:08 | 37.66701 | -2.90952 | 37943 ft | 482 kts | 42° |
| 2026-05-05 16:08 | 37.71341 | -2.84830 | 38001 ft | 484 kts | 42° |
| 2026-05-05 16:09 | 37.75986 | -2.78689 | 38002 ft | 485 kts | 42° |
| 2026-05-05 16:09 | 37.80659 | -2.72513 | 38005 ft | 484 kts | 42° |
| 2026-05-05 16:10 | 37.85284 | -2.66380 | 38000 ft | 485 kts | 42° |
| 2026-05-05 16:10 | 37.89920 | -2.60218 | 38000 ft | 485 kts | 42° |
| 2026-05-05 16:11 | 37.94563 | -2.54034 | 38000 ft | 485 kts | 42° |
| 2026-05-05 16:12 | 38.03843 | -2.41646 | 37999 ft | 485 kts | 41° |
| 2026-05-05 16:13 | 38.15459 | -2.26065 | 37990 ft | 486 kts | 43° |
| 2026-05-05 16:13 | 38.20080 | -2.19814 | 37964 ft | 487 kts | 44° |
| 2026-05-05 16:14 | 38.28576 | -2.06365 | 37978 ft | 489 kts | 49° |
| 2026-05-05 16:15 | 38.36978 | -1.92723 | 37959 ft | 491 kts | 48° |
| 2026-05-05 16:16 | 38.45375 | -1.79078 | 37934 ft | 491 kts | 48° |
| 2026-05-05 16:17 | 38.51668 | -1.68808 | 37934 ft | 491 kts | 49° |
| 2026-05-05 16:18 | 38.57972 | -1.58479 | 37943 ft | 492 kts | 49° |
| 2026-05-05 16:19 | 38.64263 | -1.48139 | 37942 ft | 493 kts | 49° |
| 2026-05-05 16:19 | 38.70553 | -1.37766 | 37953 ft | 494 kts | 49° |
| 2026-05-05 16:20 | 38.78942 | -1.23907 | 37973 ft | 494 kts | 49° |
| 2026-05-05 16:22 | 38.89451 | -1.06445 | 37971 ft | 496 kts | 50° |
| 2026-05-05 16:23 | 38.97803 | -0.92486 | 37937 ft | 495 kts | 50° |
| 2026-05-05 16:23 | 39.04254 | -0.82143 | 37937 ft | 493 kts | 43° |
| 2026-05-05 16:24 | 39.09288 | -0.76250 | 37892 ft | 489 kts | 32° |
| 2026-05-05 16:25 | 39.17891 | -0.69472 | 37917 ft | 482 kts | 21° |
| 2026-05-05 16:25 | 39.26770 | -0.63445 | 37916 ft | 482 kts | 22° |
| 2026-05-05 16:26 | 39.38607 | -0.55292 | 37881 ft | 482 kts | 22° |
| 2026-05-05 16:27 | 39.44534 | -0.51240 | 37874 ft | 483 kts | 21° |
| 2026-05-05 16:27 | 39.50453 | -0.47175 | 37895 ft | 482 kts | 21° |
| 2026-05-05 16:28 | 39.56376 | -0.43093 | 37876 ft | 482 kts | 22° |
| 2026-05-05 16:28 | 39.62280 | -0.39020 | 37912 ft | 484 kts | 21° |
| 2026-05-05 16:29 | 39.68205 | -0.34919 | 37908 ft | 482 kts | 22° |
| 2026-05-05 16:29 | 39.74147 | -0.30801 | 37904 ft | 483 kts | 22° |
| 2026-05-05 16:30 | 39.80078 | -0.26684 | 37896 ft | 485 kts | 23° |
| 2026-05-05 16:30 | 39.85997 | -0.22562 | 37887 ft | 486 kts | 22° |
| 2026-05-05 16:31 | 39.91939 | -0.18419 | 37922 ft | 487 kts | 23° |
| 2026-05-05 16:31 | 39.97908 | -0.14246 | 37900 ft | 486 kts | 23° |
| 2026-05-05 16:32 | 40.03848 | -0.10090 | 37769 ft | 487 kts | 23° |
| 2026-05-05 16:32 | 40.06855 | -0.07981 | 37277 ft | 487 kts | 23° |
| 2026-05-05 16:32 | 40.09829 | -0.05889 | 36615 ft | 487 kts | 23° |
| 2026-05-05 16:33 | 40.12810 | -0.03794 | 35916 ft | 488 kts | 22° |
| 2026-05-05 16:33 | 40.15807 | -0.01682 | 35267 ft | 489 kts | 22° |
| 2026-05-05 16:33 | 40.18825 | 0.00438 | 34583 ft | 493 kts | 22° |
| 2026-05-05 16:33 | 40.21856 | 0.02574 | 33774 ft | 497 kts | 22° |
| 2026-05-05 16:34 | 40.24915 | 0.04733 | 33008 ft | 498 kts | 22° |
| 2026-05-05 16:34 | 40.27925 | 0.06860 | 32470 ft | 493 kts | 22° |
| 2026-05-05 16:34 | 40.30923 | 0.08983 | 31984 ft | 488 kts | 22° |
| 2026-05-05 16:34 | 40.33894 | 0.11088 | 31488 ft | 483 kts | 22° |
| 2026-05-05 16:35 | 40.36837 | 0.13177 | 31005 ft | 478 kts | 22° |
| 2026-05-05 16:35 | 40.39750 | 0.15241 | 30521 ft | 474 kts | 22° |
| 2026-05-05 16:35 | 40.42606 | 0.17271 | 30044 ft | 470 kts | 21° |
| 2026-05-05 16:35 | 40.45488 | 0.19315 | 29556 ft | 466 kts | 22° |
| 2026-05-05 16:36 | 40.48313 | 0.21324 | 29073 ft | 462 kts | 22° |
| 2026-05-05 16:36 | 40.51108 | 0.23317 | 28600 ft | 458 kts | 21° |
| 2026-05-05 16:36 | 40.53857 | 0.25454 | 28102 ft | 461 kts | 32° |
| 2026-05-05 16:36 | 40.56034 | 0.28500 | 27670 ft | 465 kts | 57° |
| 2026-05-05 16:37 | 40.57333 | 0.32395 | 27665 ft | 464 kts | 73° |
| 2026-05-05 16:37 | 40.58239 | 0.36384 | 27524 ft | 460 kts | 76° |
| 2026-05-05 16:37 | 40.59101 | 0.40419 | 26984 ft | 460 kts | 76° |
| 2026-05-05 16:37 | 40.59979 | 0.44463 | 26438 ft | 459 kts | 75° |
| 2026-05-05 16:38 | 40.60872 | 0.48450 | 25954 ft | 456 kts | 75° |
| 2026-05-05 16:38 | 40.61787 | 0.52409 | 25461 ft | 453 kts | 74° |
| 2026-05-05 16:38 | 40.62705 | 0.56350 | 24989 ft | 449 kts | 74° |
| 2026-05-05 16:38 | 40.63624 | 0.60279 | 24523 ft | 445 kts | 74° |
| 2026-05-05 16:39 | 40.64527 | 0.64125 | 24053 ft | 442 kts | 74° |
| 2026-05-05 16:39 | 40.65435 | 0.67997 | 23580 ft | 438 kts | 75° |
| 2026-05-05 16:39 | 40.66326 | 0.71820 | 23131 ft | 434 kts | 75° |
| 2026-05-05 16:39 | 40.67202 | 0.75580 | 22672 ft | 430 kts | 75° |
| 2026-05-05 16:40 | 40.68077 | 0.79345 | 22249 ft | 426 kts | 75° |
| 2026-05-05 16:40 | 40.68931 | 0.83029 | 21831 ft | 422 kts | 75° |
| 2026-05-05 16:40 | 40.69784 | 0.86705 | 21404 ft | 418 kts | 75° |
| 2026-05-05 16:40 | 40.70620 | 0.90318 | 20999 ft | 414 kts | 74° |
| 2026-05-05 16:41 | 40.71459 | 0.93952 | 20599 ft | 410 kts | 74° |
| 2026-05-05 16:41 | 40.72281 | 0.97508 | 20185 ft | 407 kts | 75° |
| 2026-05-05 16:41 | 40.73096 | 1.01040 | 19772 ft | 404 kts | 75° |
| 2026-05-05 16:41 | 40.73903 | 1.04561 | 19373 ft | 400 kts | 74° |
| 2026-05-05 16:42 | 40.74708 | 1.08067 | 18975 ft | 396 kts | 74° |
| 2026-05-05 16:42 | 40.75500 | 1.11514 | 18539 ft | 393 kts | 74° |
| 2026-05-05 16:42 | 40.76284 | 1.14929 | 18126 ft | 390 kts | 74° |
| 2026-05-05 16:42 | 40.77062 | 1.18324 | 17715 ft | 387 kts | 74° |
| 2026-05-05 16:43 | 40.77835 | 1.21706 | 17287 ft | 384 kts | 74° |
| 2026-05-05 16:43 | 40.78597 | 1.25042 | 16893 ft | 380 kts | 74° |
| 2026-05-05 16:43 | 40.79354 | 1.28369 | 16485 ft | 377 kts | 74° |
| 2026-05-05 16:43 | 40.80104 | 1.31663 | 16076 ft | 374 kts | 74° |
| 2026-05-05 16:44 | 40.80839 | 1.34906 | 15885 ft | 363 kts | 74° |
| 2026-05-05 16:44 | 40.81548 | 1.38033 | 15878 ft | 359 kts | 74° |
| 2026-05-05 16:44 | 40.82257 | 1.41165 | 15880 ft | 359 kts | 75° |
| 2026-05-05 16:44 | 40.82977 | 1.44356 | 15880 ft | 360 kts | 74° |
| 2026-05-05 16:45 | 40.83687 | 1.47514 | 15880 ft | 360 kts | 75° |
| 2026-05-05 16:45 | 40.84399 | 1.50667 | 15878 ft | 359 kts | 74° |
| 2026-05-05 16:45 | 40.85106 | 1.53815 | 15878 ft | 359 kts | 75° |
| 2026-05-05 16:45 | 40.85811 | 1.56953 | 15733 ft | 356 kts | 74° |
| 2026-05-05 16:46 | 40.86522 | 1.60122 | 15044 ft | 364 kts | 74° |
| 2026-05-05 16:46 | 40.87168 | 1.63339 | 14422 ft | 366 kts | 79° |
| 2026-05-05 16:46 | 40.87603 | 1.66629 | 14002 ft | 362 kts | 83° |
| 2026-05-05 16:46 | 40.87957 | 1.69876 | 13612 ft | 357 kts | 84° |
| 2026-05-05 16:47 | 40.88295 | 1.73095 | 13193 ft | 354 kts | 84° |
| 2026-05-05 16:47 | 40.88627 | 1.76282 | 12759 ft | 351 kts | 84° |
| 2026-05-05 16:47 | 40.88961 | 1.79454 | 12428 ft | 345 kts | 83° |
| 2026-05-05 16:47 | 40.89292 | 1.82569 | 12079 ft | 340 kts | 83° |
| 2026-05-05 16:48 | 40.89614 | 1.85598 | 11749 ft | 335 kts | 83° |
| 2026-05-05 16:48 | 40.89935 | 1.88629 | 11419 ft | 330 kts | 83° |
| 2026-05-05 16:48 | 40.90252 | 1.91616 | 11103 ft | 325 kts | 83° |
| 2026-05-05 16:48 | 40.90562 | 1.94553 | 10794 ft | 321 kts | 83° |
| 2026-05-05 16:49 | 40.90866 | 1.97443 | 10496 ft | 316 kts | 83° |
| 2026-05-05 16:49 | 40.91165 | 2.00274 | 10205 ft | 312 kts | 83° |
| 2026-05-05 16:49 | 40.91462 | 2.03094 | 9917 ft | 307 kts | 83° |
| 2026-05-05 16:49 | 40.91752 | 2.05852 | 9614 ft | 304 kts | 83° |
| 2026-05-05 16:50 | 40.92273 | 2.08554 | 9244 ft | 303 kts | 62° |
| 2026-05-05 16:50 | 40.93647 | 2.10583 | 8885 ft | 298 kts | 33° |
| 2026-05-05 16:50 | 40.95428 | 2.11911 | 8569 ft | 294 kts | 24° |
| 2026-05-05 16:50 | 40.97247 | 2.13077 | 8231 ft | 292 kts | 24° |
| 2026-05-05 16:51 | 40.99073 | 2.14279 | 7896 ft | 290 kts | 25° |
| 2026-05-05 16:51 | 41.00858 | 2.15520 | 7556 ft | 289 kts | 26° |
| 2026-05-05 16:51 | 41.02604 | 2.16781 | 7232 ft | 287 kts | 27° |
| 2026-05-05 16:51 | 41.04346 | 2.18068 | 6897 ft | 285 kts | 27° |
| 2026-05-05 16:52 | 41.06066 | 2.19354 | 6561 ft | 284 kts | 28° |
| 2026-05-05 16:52 | 41.07785 | 2.20647 | 6243 ft | 282 kts | 28° |
| 2026-05-05 16:52 | 41.09470 | 2.21916 | 5991 ft | 278 kts | 28° |
| 2026-05-05 16:52 | 41.11160 | 2.23192 | 5928 ft | 279 kts | 28° |
| 2026-05-05 16:53 | 41.12859 | 2.24478 | 5906 ft | 280 kts | 28° |
| 2026-05-05 16:53 | 41.14560 | 2.25763 | 5892 ft | 280 kts | 27° |
| 2026-05-05 16:53 | 41.16256 | 2.26997 | 5815 ft | 280 kts | 26° |
| 2026-05-05 16:53 | 41.17999 | 2.28178 | 5688 ft | 279 kts | 25° |
| 2026-05-05 16:54 | 41.19738 | 2.29340 | 5564 ft | 279 kts | 25° |
| 2026-05-05 16:54 | 41.21462 | 2.30502 | 5436 ft | 279 kts | 25° |
| 2026-05-05 16:54 | 41.23175 | 2.31662 | 5309 ft | 277 kts | 25° |
| 2026-05-05 16:54 | 41.24904 | 2.32840 | 5185 ft | 277 kts | 25° |
| 2026-05-05 16:55 | 41.26603 | 2.34001 | 5065 ft | 277 kts | 25° |
| 2026-05-05 16:55 | 41.28315 | 2.35171 | 4940 ft | 276 kts | 25° |
| 2026-05-05 16:55 | 41.30027 | 2.36343 | 4827 ft | 276 kts | 25° |
| 2026-05-05 16:55 | 41.31680 | 2.37666 | 4698 ft | 277 kts | 38° |
| 2026-05-05 16:56 | 41.32950 | 2.39594 | 4566 ft | 278 kts | 58° |
| 2026-05-05 16:56 | 41.33814 | 2.41894 | 4448 ft | 278 kts | 65° |
| 2026-05-05 16:56 | 41.34580 | 2.44229 | 4332 ft | 278 kts | 66° |
| 2026-05-05 16:56 | 41.35352 | 2.46598 | 4209 ft | 277 kts | 66° |
| 2026-05-05 16:57 | 41.36123 | 2.48912 | 4090 ft | 276 kts | 64° |
| 2026-05-05 16:57 | 41.37215 | 2.50988 | 3948 ft | 275 kts | 37° |
| 2026-05-05 16:57 | 41.38936 | 2.51943 | 3824 ft | 270 kts | 2° |
| 2026-05-05 16:57 | 41.40747 | 2.51502 | 3703 ft | 265 kts | 332° |
| 2026-05-05 16:58 | 41.42189 | 2.50052 | 3579 ft | 261 kts | 307° |
| 2026-05-05 16:58 | 41.43035 | 2.47931 | 3451 ft | 257 kts | 283° |
| 2026-05-05 16:58 | 41.43115 | 2.45613 | 3325 ft | 255 kts | 258° |
| 2026-05-05 16:58 | 41.42470 | 2.43430 | 3180 ft | 255 kts | 241° |
| 2026-05-05 16:59 | 41.41613 | 2.41349 | 3013 ft | 254 kts | 238° |
| 2026-05-05 16:59 | 41.40645 | 2.39389 | 2979 ft | 254 kts | 237° |
| 2026-05-05 16:59 | 41.39774 | 2.37347 | 2975 ft | 255 kts | 244° |
| 2026-05-05 16:59 | 41.39054 | 2.35212 | 2973 ft | 250 kts | 246° |
| 2026-05-05 17:00 | 41.38387 | 2.33147 | 2969 ft | 236 kts | 246° |
| 2026-05-05 17:00 | 41.37743 | 2.31206 | 2965 ft | 224 kts | 245° |
| 2026-05-05 17:00 | 41.37111 | 2.29356 | 2937 ft | 214 kts | 245° |
| 2026-05-05 17:00 | 41.36491 | 2.27565 | 2744 ft | 213 kts | 245° |
| 2026-05-05 17:01 | 41.35867 | 2.25763 | 2465 ft | 216 kts | 245° |
| 2026-05-05 17:01 | 41.35244 | 2.23963 | 2177 ft | 213 kts | 245° |
| 2026-05-05 17:01 | 41.34638 | 2.22204 | 1896 ft | 206 kts | 245° |
| 2026-05-05 17:01 | 41.34054 | 2.20508 | 1703 ft | 193 kts | 245° |
| 2026-05-05 17:02 | 41.33522 | 2.18962 | 1468 ft | 176 kts | 245° |
| 2026-05-05 17:02 | 41.33039 | 2.17556 | 1214 ft | 157 kts | 245° |
| 2026-05-05 17:02 | 41.32601 | 2.16284 | 979 ft | 144 kts | 245° |
| 2026-05-05 17:02 | 41.32205 | 2.15129 | 781 ft | 132 kts | 244° |
| 2026-05-05 17:03 | 41.31842 | 2.14074 | 613 ft | 123 kts | 245° |
| 2026-05-05 17:03 | 41.31482 | 2.13049 | 483 ft | 122 kts | 244° |
| 2026-05-05 17:03 | 41.31132 | 2.12010 | 300 ft | 122 kts | 245° |
| 2026-05-05 17:03 | 41.30790 | 2.10995 | 161 ft | 121 kts | 245° |
| 2026-05-05 17:04 | 41.30437 | 2.09975 | 39 ft | 120 kts | 243° |
| 2026-05-05 17:04 | 41.30122 | 2.09061 | 24 ft | 88 kts | 245° |
| 2026-05-05 17:04 | 41.29937 | 2.08518 | 24 ft | 48 kts | 246° |
| 2026-05-05 17:04 | 41.29776 | 2.08259 | 24 ft | 33 kts | 213° |
| 2026-05-05 17:05 | 41.29654 | 2.08201 | 24 ft | 16 kts | 165° |
| 2026-05-05 17:05 | 41.29576 | 2.08248 | 24 ft | 12 kts | 155° |
| 2026-05-05 17:05 | 41.29491 | 2.08302 | 24 ft | 14 kts | 154° |
| 2026-05-05 17:05 | 41.29400 | 2.08350 | 24 ft | 11 kts | 176° |
| 2026-05-05 17:06 | 41.29350 | 2.08266 | 24 ft | 13 kts | 248° |
| 2026-05-05 17:06 | 41.29306 | 2.08165 | 24 ft | 8 kts | 205° |
| 2026-05-05 17:06 | 41.29259 | 2.08158 | 24 ft | 6 kts | 180° |
| 2026-05-05 17:06 | 41.29229 | 2.08158 | 24 ft | 0 kts | 178° |
| 2026-05-05 17:07 | 41.29228 | 2.08158 | 24 ft | 0 kts | 178° |